createdAt,value
2022-10-25T00:00:40.484Z,15.00
2022-10-25T00:03:10.629Z,14.93
2022-10-25T00:05:41.405Z,14.96
2022-10-25T00:08:11.767Z,14.99
2022-10-25T00:10:41.455Z,15.02
2022-10-25T00:13:10.970Z,14.99
2022-10-25T00:15:43.149Z,15.04
2022-10-25T00:18:12.657Z,15.00
2022-10-25T00:20:42.607Z,14.93
2022-10-25T00:23:12.187Z,14.99
2022-10-25T00:25:41.664Z,14.96
2022-10-25T00:28:11.211Z,14.97
2022-10-25T00:30:43.365Z,14.84
2022-10-25T00:33:12.845Z,14.86
2022-10-25T00:35:42.283Z,14.90
2022-10-25T00:38:11.825Z,14.87
2022-10-25T00:40:41.330Z,14.84
2022-10-25T00:43:12.291Z,14.80
2022-10-25T00:45:44.411Z,14.78
2022-10-25T00:48:15.435Z,14.80
2022-10-25T00:50:51.278Z,14.81
2022-10-25T00:53:24.041Z,14.78
2022-10-25T00:55:58.213Z,14.75
2022-10-25T00:58:31.277Z,14.82
2022-10-25T01:01:04.443Z,14.64
2022-10-25T01:03:34.047Z,14.39
2022-10-25T01:06:05.729Z,14.29
2022-10-25T01:08:36.126Z,14.27
2022-10-25T01:11:05.887Z,14.28
2022-10-25T01:13:35.475Z,14.28
2022-10-25T01:16:18.190Z,14.34
2022-10-25T01:18:54.151Z,14.32
2022-10-25T01:21:39.413Z,14.35
2022-10-25T01:24:40.369Z,14.52
2022-10-25T01:27:39.655Z,14.53
2022-10-25T01:30:14.657Z,14.51
2022-10-25T01:32:55.635Z,14.53
2022-10-25T01:35:30.274Z,14.53
2022-10-25T01:38:11.322Z,14.58
2022-10-25T01:40:50.765Z,14.52
2022-10-25T01:43:27.741Z,14.51
2022-10-25T01:46:03.395Z,14.39
2022-10-25T01:48:39.654Z,14.11
2022-10-25T01:51:13.485Z,14.01
2022-10-25T01:53:51.461Z,13.90
2022-10-25T01:56:27.917Z,13.86
2022-10-25T01:59:23.511Z,13.81
2022-10-25T02:02:04.136Z,13.72
2022-10-25T02:04:46.525Z,13.72
2022-10-25T02:07:22.980Z,13.71
2022-10-25T02:10:02.379Z,13.75
2022-10-25T02:12:35.856Z,13.71
2022-10-25T02:15:11.857Z,13.75
2022-10-25T02:17:47.737Z,13.84
2022-10-25T02:20:24.820Z,13.89
2022-10-25T02:22:55.779Z,13.95
2022-10-25T02:25:25.579Z,13.94
2022-10-25T02:27:57.259Z,13.96
2022-10-25T02:30:27.027Z,13.94
2022-10-25T02:32:56.522Z,13.93
2022-10-25T02:35:28.750Z,13.90
2022-10-25T02:37:58.229Z,13.88
2022-10-25T02:40:28.322Z,13.90
2022-10-25T02:42:57.801Z,13.88
2022-10-25T02:45:27.468Z,13.78
2022-10-25T02:47:57.032Z,13.79
2022-10-25T02:50:29.173Z,13.70
2022-10-25T02:52:58.764Z,13.64
2022-10-25T02:55:28.358Z,13.50
2022-10-25T02:57:57.836Z,13.41
2022-10-25T03:00:29.673Z,13.36
2022-10-25T03:02:59.335Z,13.36
2022-10-25T03:05:31.550Z,13.31
2022-10-25T03:08:01.132Z,13.29
2022-10-25T03:10:30.616Z,13.26
2022-10-25T03:13:00.146Z,13.21
2022-10-25T03:15:29.628Z,13.21
2022-10-25T03:17:59.184Z,13.22
2022-10-25T03:20:31.431Z,13.23
2022-10-25T03:23:00.939Z,13.20
2022-10-25T03:25:30.516Z,13.23
2022-10-25T03:28:00.515Z,13.17
2022-10-25T03:30:30.368Z,13.30
2022-10-25T03:33:00.486Z,13.29
2022-10-25T03:35:32.717Z,13.25
2022-10-25T03:38:02.201Z,13.29
2022-10-25T03:40:31.716Z,13.27
2022-10-25T03:43:01.563Z,13.31
2022-10-25T03:45:31.204Z,13.31
2022-10-25T03:48:00.727Z,13.31
2022-10-25T03:50:32.824Z,13.26
2022-10-25T03:53:02.851Z,13.29
2022-10-25T03:55:32.414Z,13.26
2022-10-25T03:58:02.211Z,13.21
2022-10-25T04:00:32.486Z,13.22
2022-10-25T04:03:03.586Z,13.26
2022-10-25T04:05:38.321Z,13.26
2022-10-25T04:08:08.193Z,13.30
2022-10-25T04:10:37.896Z,13.28
2022-10-25T04:13:09.663Z,13.26
2022-10-25T04:15:40.872Z,13.25
2022-10-25T04:18:10.428Z,13.29
2022-10-25T04:20:42.591Z,13.34
2022-10-25T04:23:12.128Z,13.31
2022-10-25T04:25:41.667Z,13.28
2022-10-25T04:28:11.176Z,13.27
2022-10-25T04:30:40.745Z,13.35
2022-10-25T04:33:10.599Z,13.29
2022-10-25T04:35:42.879Z,13.33
2022-10-25T04:38:12.809Z,13.30
2022-10-25T04:40:42.307Z,13.27
2022-10-25T04:43:11.821Z,13.30
2022-10-25T04:45:41.274Z,13.26
2022-10-25T04:48:10.756Z,13.29
2022-10-25T04:50:42.974Z,13.27
2022-10-25T04:53:12.553Z,13.25
2022-10-25T04:55:42.665Z,13.26
2022-10-25T04:58:12.159Z,13.27
2022-10-25T05:00:41.593Z,13.24
2022-10-25T05:03:13.234Z,13.30
2022-10-25T05:05:45.515Z,13.29
2022-10-25T05:08:15.111Z,13.30
2022-10-25T05:10:44.629Z,13.38
2022-10-25T05:13:14.211Z,13.33
2022-10-25T05:15:43.855Z,13.35
2022-10-25T05:18:13.553Z,13.37
2022-10-25T05:20:45.896Z,13.36
2022-10-25T05:23:15.800Z,13.38
2022-10-25T05:25:45.479Z,13.36
2022-10-25T05:28:15.149Z,13.34
2022-10-25T05:30:45.214Z,13.36
2022-10-25T05:33:14.909Z,13.46
2022-10-25T05:35:47.147Z,13.49
2022-10-25T05:38:16.691Z,13.47
2022-10-25T05:40:46.303Z,13.44
2022-10-25T05:43:16.001Z,13.48
2022-10-25T05:45:45.663Z,13.46
2022-10-25T05:48:15.587Z,13.35
2022-10-25T05:50:48.405Z,13.37
2022-10-25T05:53:18.339Z,13.36
2022-10-25T05:55:48.141Z,13.27
2022-10-25T05:58:17.733Z,13.26
2022-10-25T06:00:47.572Z,13.27
2022-10-25T06:03:20.619Z,13.26
2022-10-25T06:05:52.969Z,13.23
2022-10-25T06:08:22.852Z,13.22
2022-10-25T06:10:52.511Z,13.24
2022-10-25T06:13:22.196Z,13.27
2022-10-25T06:15:51.906Z,13.29
2022-10-25T06:18:21.518Z,13.28
2022-10-25T06:20:53.966Z,13.25
2022-10-25T06:23:23.665Z,13.24
2022-10-25T06:25:53.538Z,13.25
2022-10-25T06:28:23.260Z,13.27
2022-10-25T06:30:52.954Z,13.25
2022-10-25T06:33:25.726Z,13.24
2022-10-25T06:36:01.785Z,13.26
2022-10-25T06:38:32.696Z,13.25
2022-10-25T06:41:03.288Z,13.29
2022-10-25T06:43:35.091Z,13.29
2022-10-25T06:46:08.403Z,13.26
2022-10-25T06:48:38.217Z,13.24
2022-10-25T06:51:11.976Z,13.23
2022-10-25T06:53:42.382Z,13.37
2022-10-25T06:56:15.033Z,13.39
2022-10-25T06:58:45.620Z,13.48
2022-10-25T07:01:17.760Z,13.45
2022-10-25T07:03:48.032Z,13.50
2022-10-25T07:06:24.137Z,13.54
2022-10-25T07:08:56.936Z,13.56
2022-10-25T07:11:28.720Z,13.61
2022-10-25T07:13:58.737Z,13.51
2022-10-25T07:16:29.447Z,13.54
2022-10-25T07:19:02.145Z,13.58
2022-10-25T07:21:36.279Z,13.54
2022-10-25T07:24:06.433Z,13.64
2022-10-25T07:26:37.720Z,13.56
2022-10-25T07:29:07.936Z,13.62
2022-10-25T07:31:40.909Z,13.56
2022-10-25T07:34:10.731Z,13.65
2022-10-25T07:36:43.679Z,13.63
2022-10-25T07:39:13.455Z,13.61
2022-10-25T07:41:43.239Z,13.64
2022-10-25T07:44:16.671Z,13.73
2022-10-25T07:46:47.282Z,13.83
2022-10-25T07:49:17.484Z,13.97
2022-10-25T07:51:49.825Z,14.04
2022-10-25T07:54:19.703Z,14.10
2022-10-25T07:56:49.426Z,14.15
2022-10-25T07:59:19.108Z,14.14
2022-10-25T08:01:48.894Z,14.18
2022-10-25T08:04:19.218Z,14.11
2022-10-25T08:06:51.681Z,14.16
2022-10-25T08:09:37.403Z,14.17
2022-10-25T08:12:13.667Z,14.17
2022-10-25T08:14:46.197Z,14.23
2022-10-25T08:17:18.666Z,14.22
2022-10-25T08:19:51.247Z,14.31
2022-10-25T08:22:23.855Z,14.45
2022-10-25T08:24:53.620Z,14.65
2022-10-25T08:27:23.378Z,14.61
2022-10-25T08:29:53.059Z,14.55
2022-10-25T08:32:22.793Z,14.65
2022-10-25T08:34:52.405Z,14.72
2022-10-25T08:37:24.724Z,14.76
2022-10-25T08:39:55.691Z,14.89
2022-10-25T08:42:33.918Z,14.93
2022-10-25T08:45:11.044Z,15.24
2022-10-25T08:47:48.283Z,15.87
2022-10-25T08:50:23.303Z,16.42
2022-10-25T08:52:59.196Z,16.19
2022-10-25T08:55:34.993Z,15.98
2022-10-25T08:58:06.429Z,16.46
2022-10-25T09:00:40.960Z,16.43
2022-10-25T09:03:17.507Z,16.12
2022-10-25T09:05:56.089Z,16.33
2022-10-25T09:08:41.456Z,16.98
2022-10-25T09:11:23.224Z,18.24
2022-10-25T09:13:57.709Z,19.11
2022-10-25T09:16:35.445Z,19.77
2022-10-25T09:19:10.414Z,20.10
2022-10-25T09:21:47.363Z,18.79
2022-10-25T09:24:25.127Z,19.40
2022-10-25T09:27:07.342Z,20.20
2022-10-25T09:29:40.450Z,20.81
2022-10-25T09:32:18.493Z,20.13
2022-10-25T09:34:48.426Z,18.61
2022-10-25T09:37:21.303Z,17.61
2022-10-25T09:39:57.270Z,17.59
2022-10-25T09:42:30.871Z,17.71
2022-10-25T09:45:07.288Z,17.52
2022-10-25T09:47:46.522Z,17.09
2022-10-25T09:50:24.972Z,17.12
2022-10-25T09:53:09.064Z,16.93
2022-10-25T09:55:47.969Z,17.11
2022-10-25T09:58:22.597Z,17.21
2022-10-25T10:00:53.525Z,17.48
2022-10-25T10:03:24.021Z,17.53
2022-10-25T10:05:57.393Z,17.58
2022-10-25T10:08:27.757Z,17.62
2022-10-25T10:11:01.814Z,17.07
2022-10-25T10:13:38.578Z,17.28
2022-10-25T10:16:14.017Z,17.75
2022-10-25T10:18:44.640Z,17.51
2022-10-25T10:21:20.652Z,17.06
2022-10-25T10:23:54.523Z,17.09
2022-10-25T10:26:31.357Z,16.96
2022-10-25T10:29:17.442Z,17.23
2022-10-25T10:31:50.758Z,17.07
2022-10-25T10:34:29.348Z,16.85
2022-10-25T10:37:16.141Z,16.79
2022-10-25T10:39:56.879Z,16.69
2022-10-25T10:42:37.015Z,16.92
2022-10-25T10:45:18.886Z,16.80
2022-10-25T10:47:59.790Z,16.66
2022-10-25T10:50:32.891Z,16.62
2022-10-25T10:53:06.156Z,16.88
2022-10-25T10:55:38.059Z,17.71
2022-10-25T10:58:17.693Z,19.21
2022-10-25T11:00:52.999Z,20.07
2022-10-25T11:03:40.373Z,20.53
2022-10-25T11:06:18.990Z,20.45
2022-10-25T11:08:50.432Z,20.06
2022-10-25T11:11:22.457Z,19.31
2022-10-25T11:14:00.671Z,18.80
2022-10-25T11:16:49.765Z,18.50
2022-10-25T11:19:46.897Z,17.91
2022-10-25T11:22:38.134Z,17.94
2022-10-25T11:25:22.738Z,18.25
2022-10-25T11:28:04.822Z,18.42
2022-10-25T11:30:43.507Z,19.87
2022-10-25T11:33:26.236Z,20.69
2022-10-25T11:36:24.581Z,21.15
2022-10-25T11:39:04.785Z,20.39
2022-10-25T11:41:47.021Z,20.61
2022-10-25T11:44:49.379Z,20.74
2022-10-25T11:47:34.628Z,20.83
2022-10-25T11:50:20.195Z,20.00
2022-10-25T11:53:18.322Z,19.63
2022-10-25T11:55:52.909Z,19.03
2022-10-25T11:58:38.083Z,19.43
2022-10-25T12:01:22.056Z,19.73
2022-10-25T12:04:29.479Z,19.84
2022-10-25T12:07:09.492Z,19.85
2022-10-25T12:09:53.353Z,19.79
2022-10-25T12:12:28.401Z,19.11
2022-10-25T12:15:02.771Z,18.83
2022-10-25T12:17:34.878Z,18.65
2022-10-25T12:20:08.349Z,19.04
2022-10-25T12:22:46.334Z,19.04
2022-10-25T12:25:23.338Z,19.63
2022-10-25T12:28:01.061Z,19.34
2022-10-25T12:30:33.132Z,19.15
2022-10-25T12:33:10.836Z,19.64
2022-10-25T12:35:48.038Z,20.11
2022-10-25T12:38:29.346Z,21.13
2022-10-25T12:41:05.538Z,21.83
2022-10-25T12:43:39.820Z,21.67
2022-10-25T12:46:51.197Z,21.76
2022-10-25T12:49:40.033Z,21.79
2022-10-25T12:52:25.676Z,21.17
2022-10-25T12:55:17.712Z,20.99
2022-10-25T12:57:58.065Z,20.10
2022-10-25T13:00:28.276Z,19.40
2022-10-25T13:03:27.721Z,18.86
2022-10-25T13:06:12.351Z,18.48
2022-10-25T13:08:43.696Z,18.40
2022-10-25T13:11:16.264Z,18.20
2022-10-25T13:13:52.627Z,17.88
2022-10-25T13:16:27.733Z,17.80
2022-10-25T13:19:54.877Z,18.17
2022-10-25T13:22:39.275Z,19.19
2022-10-25T13:25:20.404Z,20.00
2022-10-25T13:28:20.078Z,20.99
2022-10-25T13:30:52.359Z,21.19
2022-10-25T13:33:33.864Z,20.65
2022-10-25T13:36:09.490Z,20.95
2022-10-25T13:38:41.311Z,20.47
2022-10-25T13:41:16.638Z,20.61
2022-10-25T13:44:01.328Z,20.03
2022-10-25T13:46:38.234Z,19.41
2022-10-25T13:49:30.010Z,18.79
2022-10-25T13:52:01.658Z,18.44
2022-10-25T13:54:50.137Z,18.51
2022-10-25T13:57:51.151Z,19.07
2022-10-25T14:00:38.538Z,19.63
2022-10-25T14:03:48.528Z,20.21
2022-10-25T14:06:29.984Z,20.31
2022-10-25T14:09:08.867Z,20.33
2022-10-25T14:11:43.118Z,20.52
2022-10-25T14:14:27.157Z,20.49
2022-10-25T14:17:06.945Z,20.08
2022-10-25T14:19:42.224Z,20.26
2022-10-25T14:22:18.715Z,20.26
2022-10-25T14:24:50.562Z,19.92
2022-10-25T14:27:32.485Z,20.18
2022-10-25T14:30:24.915Z,20.12
2022-10-25T14:32:57.402Z,20.01
2022-10-25T14:35:35.615Z,19.63
2022-10-25T14:38:07.022Z,19.58
2022-10-25T14:40:36.810Z,19.55
2022-10-25T14:43:27.641Z,19.09
2022-10-25T14:46:03.024Z,18.54
2022-10-25T14:48:33.601Z,18.15
2022-10-25T14:51:09.647Z,17.98
2022-10-25T14:53:48.504Z,17.96
2022-10-25T14:56:23.405Z,17.84
2022-10-25T14:58:53.828Z,17.69
2022-10-25T15:01:25.189Z,17.66
2022-10-25T15:03:57.551Z,17.66
2022-10-25T15:06:32.743Z,17.56
2022-10-25T15:12:09.293Z,17.50
2022-10-25T15:14:39.416Z,17.37
2022-10-25T15:17:17.791Z,17.38
2022-10-25T15:20:03.810Z,17.28
2022-10-25T15:22:45.633Z,17.29
2022-10-25T15:25:31.415Z,17.07
2022-10-25T15:28:12.550Z,16.95
2022-10-25T15:30:46.011Z,16.81
2022-10-25T15:33:18.666Z,16.75
2022-10-25T15:35:52.436Z,16.81
2022-10-25T15:38:41.939Z,16.80
2022-10-25T15:41:18.860Z,16.62
2022-10-25T15:43:48.534Z,16.56
2022-10-25T15:46:27.747Z,16.37
2022-10-25T15:48:57.476Z,16.36
2022-10-25T15:51:30.184Z,16.32
2022-10-25T15:54:03.583Z,16.32
2022-10-25T15:56:33.384Z,16.32
2022-10-25T15:59:03.273Z,16.20
2022-10-25T16:01:33.064Z,16.13
2022-10-25T16:04:02.786Z,16.06
2022-10-25T16:06:32.519Z,16.01
2022-10-25T16:09:04.829Z,16.01
2022-10-25T16:11:34.561Z,15.91
2022-10-25T16:14:04.730Z,15.82
2022-10-25T16:16:40.188Z,15.83
2022-10-25T16:19:16.542Z,15.74
2022-10-25T16:21:46.858Z,15.75
2022-10-25T16:24:19.768Z,15.71
2022-10-25T16:26:52.780Z,15.69
2022-10-25T16:29:25.082Z,15.64
2022-10-25T16:31:55.123Z,15.59
2022-10-25T16:34:24.711Z,15.51
2022-10-25T16:36:55.941Z,15.50
2022-10-25T16:39:28.085Z,15.49
2022-10-25T16:41:58.426Z,15.52
2022-10-25T16:44:27.908Z,15.39
2022-10-25T16:46:57.632Z,15.34
2022-10-25T16:49:27.121Z,15.34
2022-10-25T16:51:56.941Z,15.35
2022-10-25T16:54:29.086Z,15.25
2022-10-25T16:56:58.631Z,15.19
2022-10-25T16:59:28.110Z,15.18
2022-10-25T17:01:58.140Z,15.17
2022-10-25T17:04:28.155Z,15.06
2022-10-25T17:06:57.647Z,15.01
2022-10-25T17:09:29.967Z,15.02
2022-10-25T17:11:59.418Z,15.01
2022-10-25T17:14:29.318Z,15.00
2022-10-25T17:17:02.321Z,15.02
2022-10-25T17:19:32.774Z,14.99
2022-10-25T17:22:02.611Z,14.85
2022-10-25T17:24:37.516Z,14.80
2022-10-25T17:27:07.830Z,14.78
2022-10-25T17:29:37.372Z,14.74
2022-10-25T17:32:07.027Z,14.75
2022-10-25T17:34:36.733Z,14.68
2022-10-25T17:37:06.286Z,14.62
2022-10-25T17:39:38.655Z,14.65
2022-10-25T17:42:08.260Z,14.61
2022-10-25T17:44:37.729Z,14.58
2022-10-25T17:47:07.369Z,14.59
2022-10-25T17:49:36.969Z,14.63
2022-10-25T17:52:06.800Z,14.64
2022-10-25T17:54:39.717Z,14.63
2022-10-25T17:57:09.291Z,14.55
2022-10-25T17:59:38.892Z,14.55
2022-10-25T18:02:08.503Z,14.59
2022-10-25T18:05:02.265Z,14.46
2022-10-25T18:07:30.011Z,14.38
2022-10-25T18:10:05.455Z,14.36
2022-10-25T18:12:34.929Z,14.27
2022-10-25T18:15:04.452Z,14.23
2022-10-25T18:17:34.274Z,14.29
2022-10-25T18:20:03.799Z,14.26
2022-10-25T18:22:33.660Z,14.22
2022-10-25T18:25:06.153Z,14.22
2022-10-25T18:27:35.611Z,14.03
2022-10-25T18:30:05.181Z,13.96
2022-10-25T18:32:36.148Z,13.95
2022-10-25T18:35:06.071Z,13.89
2022-10-25T18:37:35.608Z,13.84
2022-10-25T18:40:10.197Z,13.92
2022-10-25T18:42:40.219Z,13.84
2022-10-25T18:45:10.338Z,13.72
2022-10-25T18:47:41.735Z,13.73
2022-10-25T18:50:12.065Z,13.74
2022-10-25T18:52:41.492Z,13.70
2022-10-25T18:55:15.003Z,13.75
2022-10-25T18:57:44.762Z,13.70
2022-10-25T19:00:16.356Z,13.70
2022-10-25T19:02:48.858Z,13.62
2022-10-25T19:05:18.523Z,13.54
2022-10-25T19:07:48.248Z,13.41
2022-10-25T19:10:21.238Z,13.37
2022-10-25T19:12:50.721Z,13.36
2022-10-25T19:15:20.425Z,13.30
2022-10-25T19:17:53.981Z,13.31
2022-10-25T19:20:23.712Z,13.28
2022-10-25T19:22:53.392Z,13.29
2022-10-25T19:25:25.719Z,13.23
2022-10-25T19:27:55.373Z,13.23
2022-10-25T19:30:24.869Z,13.21
2022-10-25T19:32:55.268Z,13.16
2022-10-25T19:35:24.693Z,13.11
2022-10-25T19:37:54.189Z,13.13
2022-10-25T19:40:26.552Z,13.11
2022-10-25T19:42:56.301Z,13.09
2022-10-25T19:45:26.273Z,13.00
2022-10-25T19:47:57.021Z,12.98
2022-10-25T19:50:26.785Z,13.03
2022-10-25T19:52:56.317Z,12.99
2022-10-25T19:55:31.504Z,12.94
2022-10-25T19:58:02.019Z,12.94
2022-10-25T20:00:31.866Z,12.96
2022-10-25T20:03:01.648Z,12.99
2022-10-25T20:05:31.106Z,12.98
2022-10-25T20:08:00.684Z,12.95
2022-10-25T20:10:33.098Z,12.96
2022-10-25T20:13:04.754Z,12.97
2022-10-25T20:15:34.445Z,12.93
2022-10-25T20:18:04.029Z,12.95
2022-10-25T20:20:34.684Z,12.93
2022-10-25T20:23:04.302Z,12.93
2022-10-25T20:25:36.543Z,12.90
2022-10-25T20:28:06.281Z,12.89
2022-10-25T20:30:37.725Z,12.84
2022-10-25T20:33:07.885Z,12.85
2022-10-25T20:35:41.725Z,12.84
2022-10-25T20:38:12.541Z,12.76
2022-10-25T20:40:45.839Z,12.80
2022-10-25T20:43:15.324Z,12.75
2022-10-25T20:45:48.215Z,12.70
2022-10-25T20:48:17.944Z,12.69
2022-10-25T20:50:49.824Z,12.72
2022-10-25T20:53:19.896Z,12.72
2022-10-25T20:55:52.432Z,12.71
2022-10-25T20:58:23.530Z,12.69
2022-10-25T21:00:57.466Z,12.71
2022-10-25T21:03:27.765Z,12.78
2022-10-25T21:05:57.836Z,12.81
2022-10-25T21:08:27.723Z,12.82
2022-10-25T21:11:01.512Z,12.77
2022-10-25T21:13:33.360Z,12.67
2022-10-25T21:16:08.030Z,12.59
2022-10-25T21:18:38.178Z,12.54
2022-10-25T21:21:10.189Z,12.54
2022-10-25T21:23:39.790Z,12.40
2022-10-25T21:26:12.233Z,12.45
2022-10-25T21:28:43.516Z,12.43
2022-10-25T21:31:15.274Z,12.40
2022-10-25T21:33:50.238Z,12.37
2022-10-25T21:36:22.355Z,12.36
2022-10-25T21:38:51.937Z,12.36
2022-10-25T21:41:27.122Z,12.29
2022-10-25T21:43:58.051Z,12.31
2022-10-25T21:46:29.650Z,12.29
2022-10-25T21:48:59.409Z,12.26
2022-10-25T21:51:29.246Z,12.22
2022-10-25T21:54:01.305Z,12.17
2022-10-25T21:56:34.095Z,12.15
2022-10-25T21:59:04.035Z,12.07
2022-10-25T22:01:33.944Z,12.06
2022-10-25T22:04:03.900Z,12.05
2022-10-25T22:06:33.559Z,12.04
2022-10-25T22:09:03.254Z,12.02
2022-10-25T22:11:37.873Z,11.96
2022-10-25T22:14:08.917Z,11.90
2022-10-25T22:16:39.511Z,11.92
2022-10-25T22:19:15.590Z,11.95
2022-10-25T22:21:45.927Z,11.92
2022-10-25T22:24:16.125Z,11.86
2022-10-25T22:26:49.265Z,11.80
2022-10-25T22:29:18.814Z,11.78
2022-10-25T22:31:48.484Z,11.75
2022-10-25T22:34:18.111Z,11.71
2022-10-25T22:36:47.729Z,11.72
2022-10-25T22:39:17.368Z,11.72
2022-10-25T22:41:53.089Z,11.68
2022-10-25T22:47:12.231Z,11.68
2022-10-25T22:49:41.844Z,11.66
2022-10-25T22:52:11.543Z,11.59
2022-10-25T22:54:41.195Z,11.48
2022-10-25T22:57:13.318Z,11.48
2022-10-25T22:59:43.024Z,11.47
2022-10-25T23:02:12.584Z,11.38
2022-10-25T23:04:42.251Z,11.42
2022-10-25T23:07:11.852Z,11.46
2022-10-25T23:09:41.429Z,11.45
2022-10-25T23:12:13.646Z,11.45
2022-10-25T23:14:43.252Z,11.44
2022-10-25T23:17:12.795Z,11.41
2022-10-25T23:19:42.422Z,11.45
2022-10-25T23:22:12.036Z,11.44
2022-10-25T23:24:41.486Z,11.48
2022-10-25T23:27:13.551Z,11.47
2022-10-25T23:29:43.141Z,11.46
2022-10-25T23:32:12.745Z,11.48
2022-10-25T23:34:42.266Z,11.48
2022-10-25T23:37:11.838Z,11.51
2022-10-25T23:39:41.495Z,11.46
2022-10-25T23:42:13.659Z,11.34
2022-10-25T23:44:43.321Z,11.33
2022-10-25T23:47:12.910Z,11.36
2022-10-25T23:49:42.431Z,11.37
2022-10-25T23:52:12.070Z,11.37
2022-10-25T23:54:41.716Z,11.32
2022-10-25T23:57:13.811Z,11.35
2022-10-25T23:59:43.477Z,11.36
